Time;durP1;ratioP1;P1;durP2;ratioP2;P2;SDS_P1;SDS_P2;PMS_P1;PMS_P2;Temp;Humidity;BMP_temperature;BMP_pressure;BME280_temperature;BME280_humidity;BME280_pressure;Samples;Min_cycle;Max_cycle;Signal;HPM_P1;HPM_P2
2023/12/21 00:00:15;;;;;;;;;1.00;1.00;;;;;10.79;83.90;101384.28;4999082;28;45288;-58
2023/12/21 00:02:41;;;;;;;;;0.67;0.67;;;;;10.78;84.44;101390.59;4998769;28;45273;-57
2023/12/21 00:05:06;;;;;;;;;12.67;1.00;;;;;10.70;84.12;101380.59;4998839;28;45497;-59
2023/12/21 00:07:32;;;;;;;;;2.67;1.00;;;;;10.76;84.54;101392.56;4998534;28;45875;-59
2023/12/21 00:09:58;;;;;;;;;6.00;2.67;;;;;10.77;84.44;101395.06;4998663;28;45426;-59
2023/12/21 00:12:24;;;;;;;;;2.00;1.33;;;;;10.77;84.50;101384.44;4998728;28;45522;-60
2023/12/21 00:14:49;;;;;;;;;2.33;0.67;;;;;10.78;84.51;101391.44;4995536;28;46048;-58
2023/12/21 00:17:14;;;;;;;;;2.00;1.00;;;;;10.78;84.41;101380.78;4997665;28;45389;-58
2023/12/21 00:19:40;;;;;;;;;2.00;0.00;;;;;10.78;85.02;101371.97;4998956;28;45409;-60
2023/12/21 00:22:05;;;;;;;;;1.00;0.33;;;;;10.77;85.38;101371.13;4999008;28;45451;-60
2023/12/21 00:24:30;;;;;;;;;1.67;1.00;;;;;10.74;85.48;101376.72;5014086;28;45448;-64
2023/12/21 00:26:56;;;;;;;;;2.67;1.00;;;;;10.72;85.94;101360.88;4998554;28;45853;-57
2023/12/21 00:29:21;;;;;;;;;2.67;0.00;;;;;10.73;86.34;101365.22;4998717;28;45445;-59
2023/12/21 00:31:46;;;;;;;;;2.00;2.00;;;;;10.71;85.75;101353.03;4998520;28;45322;-57
2023/12/21 00:34:12;;;;;;;;;2.33;0.67;;;;;10.72;87.01;101360.03;4997560;28;45536;-58
2023/12/21 00:36:37;;;;;;;;;1.67;1.67;;;;;10.70;86.13;101349.53;4998307;28;46429;-56
2023/12/21 00:39:02;;;;;;;;;3.33;1.00;;;;;10.69;86.08;101352.31;4998372;28;45352;-58
2023/12/21 00:41:28;;;;;;;;;3.00;1.67;;;;;10.54;87.34;101322.56;4998334;28;45244;-58
2023/12/21 00:43:53;;;;;;;;;1.67;0.67;;;;;10.65;87.03;101332.28;4998607;28;45468;-57
2023/12/21 00:46:18;;;;;;;;;2.67;2.00;;;;;10.64;86.55;101338.56;4997851;28;46089;-60
2023/12/21 00:48:44;;;;;;;;;1.00;1.00;;;;;10.61;87.02;101329.03;4998246;28;45294;-59
2023/12/21 00:51:10;;;;;;;;;0.33;0.33;;;;;10.61;87.35;101339.66;4998314;28;45397;-58
2023/12/21 00:53:35;;;;;;;;;1.33;0.33;;;;;10.52;87.61;101328.97;4998475;28;45458;-57
2023/12/21 00:56:00;;;;;;;;;1.00;1.00;;;;;10.62;87.62;101330.72;4997816;28;46296;-59
2023/12/21 00:58:26;;;;;;;;;1.00;1.00;;;;;10.62;87.75;101320.09;4997968;28;45615;-58
2023/12/21 01:00:51;;;;;;;;;2.33;0.00;;;;;10.63;87.31;101313.78;4998138;28;45484;-59
2023/12/21 01:03:16;;;;;;;;;0.00;0.00;;;;;10.64;87.14;101322.63;4998449;28;45264;-59
2023/12/21 01:05:42;;;;;;;;;0.00;0.00;;;;;10.63;87.45;101318.28;4997905;28;45871;-57
2023/12/21 01:08:07;;;;;;;;;3.00;1.00;;;;;10.62;88.24;101321.88;4997865;28;45735;-57
2023/12/21 01:10:33;;;;;;;;;1.33;1.00;;;;;10.62;87.37;101322.75;4997983;28;45904;-57
2023/12/21 01:12:59;;;;;;;;;3.67;1.33;;;;;10.56;87.49;101309.97;4997831;28;45450;-58
2023/12/21 01:15:24;;;;;;;;;5.00;2.00;;;;;10.61;88.02;101320.22;4997670;28;46642;-57
2023/12/21 01:17:50;;;;;;;;;0.00;0.00;;;;;10.61;87.47;101307.75;4998132;28;45335;-59
2023/12/21 01:20:16;;;;;;;;;3.00;1.00;;;;;10.62;87.52;101298.81;4997718;28;45592;-58
2023/12/21 01:22:41;;;;;;;;;0.00;0.00;;;;;10.64;87.81;101304.00;4996659;28;45374;-56
2023/12/21 01:25:07;;;;;;;;;0.00;0.00;;;;;10.65;87.81;101305.66;4997656;28;45399;-55
2023/12/21 01:27:32;;;;;;;;;1.33;1.33;;;;;10.60;88.23;101284.78;4997500;28;45466;-58
2023/12/21 01:29:57;;;;;;;;;2.33;1.00;;;;;10.67;88.24;101279.78;4997745;28;45351;-57
2023/12/21 01:32:23;;;;;;;;;0.00;0.00;;;;;10.67;87.79;101287.75;4997715;28;45549;-56
2023/12/21 01:34:48;;;;;;;;;0.33;0.33;;;;;10.68;87.72;101281.47;4997268;28;53631;-59
2023/12/21 01:37:13;;;;;;;;;2.00;1.00;;;;;10.66;87.73;101278.94;4997553;28;45339;-58
2023/12/21 01:39:38;;;;;;;;;0.00;0.00;;;;;10.65;88.85;101271.06;4997765;28;45427;-59
2023/12/21 01:42:04;;;;;;;;;6.00;1.00;;;;;10.68;88.78;101279.63;4997725;28;45446;-56
2023/12/21 01:44:30;;;;;;;;;3.67;0.67;;;;;10.65;88.91;101263.94;4997230;28;46154;-56
2023/12/21 01:46:55;;;;;;;;;7.00;1.00;;;;;10.67;88.89;101259.34;4997559;28;45309;-58
2023/12/21 01:49:21;;;;;;;;;3.67;1.33;;;;;10.70;88.90;101260.88;4997590;28;45204;-58
2023/12/21 01:51:47;;;;;;;;;1.00;1.00;;;;;10.70;88.60;101256.41;4997866;28;45216;-56
2023/12/21 01:54:13;;;;;;;;;2.00;0.00;;;;;10.69;88.61;101245.88;4997165;28;46139;-57
2023/12/21 01:56:39;;;;;;;;;1.33;0.00;;;;;10.67;88.52;101231.88;4997056;28;45473;-57
2023/12/21 01:59:05;;;;;;;;;3.00;0.33;;;;;10.69;89.31;101244.06;4996350;28;45858;-56
2023/12/21 02:01:30;;;;;;;;;1.67;0.00;;;;;10.70;88.94;101237.78;4996056;28;45418;-58
2023/12/21 02:03:56;;;;;;;;;0.67;0.00;;;;;10.69;88.85;101228.09;4997077;28;46322;-56
2023/12/21 02:06:22;;;;;;;;;1.67;0.00;;;;;10.70;88.27;101227.13;4997174;28;45332;-59
2023/12/21 02:08:48;;;;;;;;;0.67;0.00;;;;;10.66;89.07;101223.06;4997430;28;45421;-58
2023/12/21 02:11:13;;;;;;;;;4.00;2.33;;;;;10.70;89.12;101207.66;4997295;28;45668;-59
2023/12/21 02:13:39;;;;;;;;;8.00;0.00;;;;;10.58;89.39;101182.16;4996811;28;47305;-59
2023/12/21 02:16:09;;;;;;;;;2.33;1.00;;;;;10.70;89.57;101202.31;4996965;28;45364;-59
2023/12/21 02:18:35;;;;;;;;;3.00;0.00;;;;;10.72;89.42;101200.38;4995677;28;45338;-60
2023/12/21 02:21:01;;;;;;;;;2.00;1.00;;;;;10.73;89.44;101204.72;4997212;28;45457;-59
2023/12/21 02:23:29;;;;;;;;;0.33;0.33;;;;;10.73;90.04;101200.25;4997067;28;46094;-56
2023/12/21 02:25:55;;;;;;;;;0.00;0.00;;;;;10.74;89.80;101193.97;4996799;28;45441;-57
2023/12/21 02:28:22;;;;;;;;;1.33;1.00;;;;;10.72;89.28;101193.25;4996870;28;45503;-59
2023/12/21 02:30:47;;;;;;;;;1.67;1.00;;;;;10.74;89.59;101182.44;4997359;28;45172;-59
2023/12/21 02:33:13;;;;;;;;;0.00;0.00;;;;;10.74;89.94;101193.09;4996655;28;45412;-58
2023/12/21 02:35:39;;;;;;;;;0.00;0.00;;;;;10.75;90.22;101210.75;4996772;28;45388;-58
2023/12/21 02:38:04;;;;;;;;;0.00;0.00;;;;;10.76;89.87;101200.97;4996942;28;45785;-59
2023/12/21 02:40:29;;;;;;;;;0.00;0.00;;;;;10.77;89.85;101213.28;4996813;28;45894;-59
2023/12/21 02:42:55;;;;;;;;;0.00;0.00;;;;;10.78;90.37;101201.66;4996755;28;45298;-58
2023/12/21 02:45:20;;;;;;;;;1.67;0.00;;;;;10.70;90.21;101183.69;4996942;28;45448;-58
2023/12/21 02:47:45;;;;;;;;;0.00;0.00;;;;;10.76;90.06;101191.16;4979186;28;45328;-60
2023/12/21 02:50:11;;;;;;;;;0.00;0.00;;;;;10.77;90.99;101189.34;4996998;28;45317;-58
2023/12/21 02:52:36;;;;;;;;;3.00;0.00;;;;;10.72;90.66;101171.94;4996600;28;46122;-59
2023/12/21 02:55:03;;;;;;;;;0.00;0.00;;;;;10.81;90.72;101183.59;4996569;28;45391;-57
2023/12/21 02:57:28;;;;;;;;;0.00;0.00;;;;;10.82;90.77;101184.44;4996660;28;45180;-59
2023/12/21 02:59:53;;;;;;;;;3.00;0.00;;;;;10.84;90.72;101187.81;4996686;28;45414;-60
2023/12/21 03:02:18;;;;;;;;;0.67;0.67;;;;;10.83;90.15;101172.78;4996530;28;46183;-58
2023/12/21 03:04:44;;;;;;;;;0.33;0.33;;;;;10.86;90.54;101177.84;4996519;28;45251;-60
2023/12/21 03:07:09;;;;;;;;;0.00;0.00;;;;;10.87;90.56;101168.88;4996234;28;45406;-58
2023/12/21 03:09:34;;;;;;;;;1.00;0.00;;;;;10.87;90.41;101166.22;4997541;28;45305;-58
2023/12/21 03:12:00;;;;;;;;;0.00;0.00;;;;;10.86;90.66;101161.88;4999511;28;49046;-59
2023/12/21 03:14:25;;;;;;;;;0.00;0.00;;;;;10.86;90.71;101156.56;4999181;28;46502;-59
2023/12/21 03:16:50;;;;;;;;;0.00;0.00;;;;;10.86;90.58;101157.41;4999970;28;45397;-59
2023/12/21 03:19:16;;;;;;;;;0.00;0.00;;;;;10.87;91.62;101166.22;5000009;28;45450;-59
2023/12/21 03:21:41;;;;;;;;;0.00;0.00;;;;;10.86;90.74;101159.22;4999324;28;49770;-58
2023/12/21 03:24:06;;;;;;;;;0.00;0.00;;;;;10.78;91.50;101149.25;4999742;28;45355;-59
2023/12/21 03:26:32;;;;;;;;;0.00;0.00;;;;;10.86;91.81;101152.06;4999558;28;45381;-59
2023/12/21 03:28:58;;;;;;;;;0.00;0.00;;;;;10.87;91.57;101152.91;4999685;28;45430;-56
2023/12/21 03:31:23;;;;;;;;;0.00;0.00;;;;;10.87;91.50;101144.94;4999392;28;45590;-59
2023/12/21 03:33:48;;;;;;;;;0.00;0.00;;;;;10.88;91.85;101146.63;4999424;28;45313;-58
2023/12/21 03:36:14;;;;;;;;;0.00;0.00;;;;;10.87;92.46;101143.13;4999070;28;45515;-58
2023/12/21 03:38:39;;;;;;;;;0.00;0.00;;;;;10.83;91.94;101122.22;4999543;28;45620;-58
2023/12/21 03:41:05;;;;;;;;;0.00;0.00;;;;;10.85;92.28;101122.94;4999267;28;46213;-58
2023/12/21 03:43:30;;;;;;;;;0.00;0.00;;;;;10.86;92.32;101114.81;4999087;28;45309;-57
2023/12/21 03:45:55;;;;;;;;;0.00;0.00;;;;;10.80;93.07;101107.41;4999364;28;45378;-57
2023/12/21 03:48:21;;;;;;;;;0.00;0.00;;;;;10.87;93.13;101111.19;4999650;28;45469;-57
2023/12/21 03:50:46;;;;;;;;;0.00;0.00;;;;;10.73;93.03;101091.13;4999157;28;46105;-59
2023/12/21 03:53:14;;;;;;;;;0.00;0.00;;;;;10.86;93.43;101113.97;4999092;28;45415;-58
2023/12/21 03:55:39;;;;;;;;;0.00;0.00;;;;;10.84;93.79;101097.31;4999109;28;45463;-57
2023/12/21 03:58:04;;;;;;;;;0.00;0.00;;;;;10.85;93.38;101094.50;4997913;28;45521;-58
2023/12/21 04:00:30;;;;;;;;;0.00;0.00;;;;;10.85;94.02;101091.00;4998867;28;46142;-58
2023/12/21 04:02:55;;;;;;;;;0.00;0.00;;;;;10.84;93.56;101087.50;4998923;28;45325;-58
2023/12/21 04:05:20;;;;;;;;;0.00;0.00;;;;;10.84;93.52;101070.72;4999211;28;45320;-56
2023/12/21 04:07:46;;;;;;;;;0.00;0.00;;;;;10.84;93.21;101057.41;4999123;28;45406;-58
2023/12/21 04:10:11;;;;;;;;;0.00;0.00;;;;;10.84;93.57;101046.75;4998678;28;47360;-58
2023/12/21 04:12:36;;;;;;;;;0.00;0.00;;;;;10.83;93.99;101034.41;4998698;28;45333;-57
2023/12/21 04:15:02;;;;;;;;;0.00;0.00;;;;;10.84;93.88;101026.31;4998611;28;45245;-57
2023/12/21 04:17:27;;;;;;;;;0.00;0.00;;;;;10.83;93.91;101023.75;4998876;28;45311;-58
2023/12/21 04:19:53;;;;;;;;;0.00;0.00;;;;;10.74;94.58;101001.50;4998656;28;47915;-58
2023/12/21 04:22:18;;;;;;;;;0.00;0.00;;;;;10.74;95.52;101005.03;4997986;28;45390;-59
2023/12/21 04:24:44;;;;;;;;;0.00;0.00;;;;;10.80;94.97;101016.09;4998757;28;45417;-57
2023/12/21 04:27:10;;;;;;;;;0.00;0.00;;;;;10.83;95.08;101027.28;4998825;28;45326;-59
2023/12/21 04:29:37;;;;;;;;;0.00;0.00;;;;;10.83;94.26;101029.97;4998311;28;45940;-58
2023/12/21 04:32:03;;;;;;;;;0.00;0.00;;;;;10.77;94.83;101006.56;4998351;28;45411;-58
2023/12/21 04:34:28;;;;;;;;;0.00;0.00;;;;;10.86;94.31;101020.81;4998026;28;45409;-58
2023/12/21 04:36:53;;;;;;;;;0.00;0.00;;;;;10.87;93.71;101023.38;4998690;28;45327;-57
2023/12/21 04:39:19;;;;;;;;;0.33;0.00;;;;;10.88;93.76;101016.22;4998262;28;46194;-58
2023/12/21 04:41:44;;;;;;;;;0.00;0.00;;;;;10.85;93.22;101013.84;4998429;28;45440;-58
2023/12/21 04:44:09;;;;;;;;;0.00;0.00;;;;;10.91;93.21;101007.94;4998202;28;45233;-58
2023/12/21 04:46:35;;;;;;;;;1.00;0.00;;;;;10.93;93.27;101012.13;4998451;28;45279;-58
2023/12/21 04:49:00;;;;;;;;;0.00;0.00;;;;;10.93;93.07;101017.47;4998142;28;47882;-58
2023/12/21 04:51:25;;;;;;;;;0.00;0.00;;;;;10.92;93.75;101004.31;4998011;28;46145;-59
2023/12/21 04:53:51;;;;;;;;;0.00;0.00;;;;;10.98;92.55;100999.22;4998442;28;45255;-56
2023/12/21 04:56:16;;;;;;;;;0.00;0.00;;;;;10.98;92.93;100999.22;4998222;28;45476;-56
2023/12/21 04:58:42;;;;;;;;;0.00;0.00;;;;;11.01;93.24;100998.13;4997905;28;46546;-56
2023/12/21 05:01:08;;;;;;;;;0.00;0.00;;;;;10.99;93.61;101003.56;4997836;28;45426;-57
2023/12/21 05:03:34;;;;;;;;;1.00;0.00;;;;;11.03;92.44;101021.94;4998001;28;45359;-56
2023/12/21 05:05:59;;;;;;;;;1.00;0.00;;;;;11.04;93.60;101002.31;4997971;28;45606;-57
2023/12/21 05:08:25;;;;;;;;;1.00;0.00;;;;;11.05;93.66;100988.88;4997486;28;46102;-56
2023/12/21 05:10:51;;;;;;;;;0.00;0.00;;;;;11.06;93.69;100979.06;4997848;28;45337;-57
2023/12/21 05:13:16;;;;;;;;;0.00;0.00;;;;;11.06;92.54;100985.22;4997894;28;45308;-57
2023/12/21 05:15:41;;;;;;;;;2.00;0.00;;;;;11.09;92.58;100979.59;4997897;28;45782;-58
2023/12/21 05:18:07;;;;;;;;;0.00;0.00;;;;;11.10;92.62;100983.94;4997685;28;45452;-59
2023/12/21 05:20:32;;;;;;;;;1.00;0.00;;;;;11.11;92.83;100980.28;4997591;28;45390;-58
2023/12/21 05:22:58;;;;;;;;;0.00;0.00;;;;;11.05;92.62;100966.72;4996286;28;45398;-57
2023/12/21 05:25:24;;;;;;;;;1.00;0.00;;;;;11.11;92.30;100980.28;4997916;28;45392;-59
2023/12/21 05:27:49;;;;;;;;;0.00;0.00;;;;;11.12;92.64;100979.31;4997310;28;47149;-58
2023/12/21 05:30:17;;;;;;;;;0.00;0.00;;;;;11.14;92.19;100977.34;4997234;28;45362;-57
2023/12/21 05:32:42;;;;;;;;;0.00;0.00;;;;;11.16;92.45;100978.03;4997627;28;45305;-57
2023/12/21 05:35:10;;;;;;;;;0.00;0.00;;;;;11.18;91.79;100970.75;4997084;28;45342;-58
2023/12/21 05:37:35;;;;;;;;;0.00;0.00;;;;;11.18;92.01;100976.06;4997218;28;46278;-58
2023/12/21 05:40:01;;;;;;;;;0.00;0.00;;;;;11.19;92.23;100991.06;4995797;28;50342;-58
2023/12/21 05:42:27;;;;;;;;;0.00;0.00;;;;;11.17;92.90;100987.72;4997522;28;45342;-58
2023/12/21 05:44:53;;;;;;;;;0.00;0.00;;;;;11.21;92.41;100994.44;4997613;28;45590;-58
2023/12/21 05:47:18;;;;;;;;;0.00;0.00;;;;;11.19;93.44;100980.41;4997163;28;46149;-58
2023/12/21 05:49:43;;;;;;;;;0.00;0.00;;;;;11.08;92.66;100951.31;4997256;28;45290;-58
2023/12/21 05:52:09;;;;;;;;;0.00;0.00;;;;;11.21;93.79;100970.47;4997353;28;45564;-59
2023/12/21 05:54:34;;;;;;;;;0.00;0.00;;;;;11.21;93.29;100957.16;4997363;28;45254;-58
2023/12/21 05:57:01;;;;;;;;;0.00;0.00;;;;;11.22;92.97;100942.84;4997126;28;49194;-59
2023/12/21 05:59:27;;;;;;;;;0.00;0.00;;;;;11.09;92.79;100912.22;4997178;28;45542;-58
2023/12/21 06:01:52;;;;;;;;;0.00;0.00;;;;;11.17;93.85;100923.81;4997045;28;45719;-57
2023/12/21 06:04:18;;;;;;;;;0.00;0.00;;;;;11.20;94.49;100923.50;4997404;28;45211;-58
2023/12/21 06:06:47;;;;;;;;;0.00;0.00;;;;;11.19;94.27;100929.81;4996808;28;47242;-58
2023/12/21 06:09:13;;;;;;;;;0.00;0.00;;;;;11.20;94.59;100922.66;4997040;28;45454;-59
2023/12/21 06:11:38;;;;;;;;;0.00;0.00;;;;;11.17;95.41;100921.16;4997022;28;45340;-59
2023/12/21 06:14:04;;;;;;;;;0.00;0.00;;;;;11.15;94.34;100908.97;5012377;28;45514;-58
2023/12/21 06:16:29;;;;;;;;;0.00;0.00;;;;;11.18;95.09;100936.13;4996328;28;47139;-58
2023/12/21 06:18:54;;;;;;;;;0.00;0.00;;;;;11.17;95.10;100920.31;4996824;28;45406;-59
2023/12/21 06:21:20;;;;;;;;;0.00;0.00;;;;;11.21;94.69;100935.03;4997234;28;45291;-59
2023/12/21 06:23:47;;;;;;;;;0.00;0.00;;;;;11.23;95.11;100927.69;4997102;28;45279;-58
2023/12/21 06:26:12;;;;;;;;;0.00;0.00;;;;;11.17;94.50;100902.50;4996599;28;46244;-59
2023/12/21 06:28:38;;;;;;;;;0.00;0.00;;;;;11.22;94.08;100908.22;4996674;28;45408;-58
2023/12/21 06:31:03;;;;;;;;;0.00;0.00;;;;;11.23;93.38;100931.19;4996654;28;45404;-57
2023/12/21 06:33:29;;;;;;;;;0.00;0.00;;;;;11.24;93.17;100935.53;4996845;28;45407;-58
2023/12/21 06:35:54;;;;;;;;;1.00;0.00;;;;;11.26;93.21;100938.06;4996145;28;46149;-58
2023/12/21 06:38:19;;;;;;;;;0.00;0.00;;;;;11.24;92.75;100943.53;4996538;28;45473;-59
2023/12/21 06:40:45;;;;;;;;;0.00;0.00;;;;;11.26;92.57;100942.56;4996701;28;45409;-57
2023/12/21 06:43:10;;;;;;;;;0.00;0.00;;;;;11.30;92.95;100955.44;5012174;28;45343;-58
2023/12/21 06:45:35;;;;;;;;;0.00;0.00;;;;;11.34;92.49;100953.31;4995770;28;46895;-59
2023/12/21 06:48:01;;;;;;;;;0.00;0.00;;;;;11.35;92.60;100955.00;4996602;28;45301;-59
2023/12/21 06:50:27;;;;;;;;;1.00;0.00;;;;;11.37;92.34;100945.84;4996498;28;45555;-59
2023/12/21 06:52:52;;;;;;;;;0.00;0.00;;;;;11.38;92.28;100934.25;4996791;28;45310;-58
2023/12/21 06:55:18;;;;;;;;;0.00;0.00;;;;;11.37;92.02;100939.69;4996311;28;46098;-60
2023/12/21 06:57:43;;;;;;;;;0.00;0.00;;;;;11.41;92.05;100957.06;4994971;28;52460;-60
2023/12/21 07:00:09;;;;;;;;;0.00;0.00;;;;;11.41;91.80;100951.72;4996349;28;45398;-57
2023/12/21 07:02:35;;;;;;;;;1.00;0.00;;;;;11.43;92.08;100960.44;4995380;28;45498;-57
2023/12/21 07:05:01;;;;;;;;;1.00;0.00;;;;;11.44;91.43;100954.94;4995939;28;45338;-58
2023/12/21 07:07:26;;;;;;;;;0.00;0.00;;;;;11.46;91.37;100938.81;4996402;28;45297;-57
2023/12/21 07:09:51;;;;;;;;;0.00;0.00;;;;;11.44;91.71;100938.13;4996507;28;45328;-57
2023/12/21 07:12:17;;;;;;;;;0.00;0.00;;;;;11.46;91.34;100950.31;4996483;28;45400;-57
2023/12/21 07:14:42;;;;;;;;;0.00;0.00;;;;;11.47;91.27;100962.66;4996256;28;45392;-57
2023/12/21 07:17:08;;;;;;;;;0.00;0.00;;;;;11.50;91.30;100977.47;4995870;28;46125;-57
2023/12/21 07:19:34;;;;;;;;;0.00;0.00;;;;;11.43;91.15;100949.78;4996208;28;45388;-57
2023/12/21 07:21:59;;;;;;;;;0.00;0.00;;;;;11.47;91.65;100961.81;4996408;28;45544;-58
2023/12/21 07:24:24;;;;;;;;;0.00;0.00;;;;;11.54;91.57;100972.69;4996147;28;45753;-58
2023/12/21 07:26:50;;;;;;;;;0.00;0.00;;;;;11.53;91.26;100953.22;4996398;28;45314;-57
2023/12/21 07:29:16;;;;;;;;;0.00;0.00;;;;;11.57;90.82;100956.44;4996354;28;45408;-58
2023/12/21 07:31:41;;;;;;;;;0.00;0.00;;;;;11.57;91.39;100962.59;4996268;28;45461;-58
2023/12/21 07:34:06;;;;;;;;;0.33;0.00;;;;;11.51;91.25;100944.56;4995793;28;45394;-56
2023/12/21 07:36:32;;;;;;;;;0.00;0.00;;;;;11.62;91.08;100972.81;4995968;28;45462;-60
2023/12/21 07:38:57;;;;;;;;;0.00;0.00;;;;;11.61;90.96;100958.66;4996030;28;45483;-58
2023/12/21 07:41:23;;;;;;;;;0.00;0.00;;;;;11.61;90.97;100947.16;4996163;28;45451;-56
2023/12/21 07:43:48;;;;;;;;;0.00;0.00;;;;;11.63;90.44;100946.03;4995853;28;47937;-57
2023/12/21 07:46:14;;;;;;;;;0.00;0.00;;;;;11.63;90.98;100932.72;4995458;28;45410;-57
2023/12/21 07:48:40;;;;;;;;;0.00;0.00;;;;;11.62;91.20;100946.16;4995627;28;45440;-56
2023/12/21 07:51:08;;;;;;;;;2.00;1.67;;;;;11.64;91.08;100934.38;4995651;28;45378;-58
2023/12/21 07:53:34;;;;;;;;;2.33;0.00;;;;;11.63;91.49;100940.72;4995295;28;46060;-58
2023/12/21 07:55:59;;;;;;;;;0.33;0.00;;;;;11.65;91.13;100941.38;4995403;28;45389;-57
2023/12/21 07:58:25;;;;;;;;;0.00;0.00;;;;;11.66;90.86;100923.56;4998721;28;45348;-57
2023/12/21 08:00:50;;;;;;;;;0.00;0.00;;;;;11.65;91.45;100933.38;4999031;28;45402;-57
2023/12/21 08:03:16;;;;;;;;;0.00;0.00;;;;;11.65;91.31;100917.41;4998456;28;46125;-57
2023/12/21 08:05:41;;;;;;;;;0.00;0.00;;;;;11.64;91.26;100930.88;4998549;28;45550;-58
2023/12/21 08:08:06;;;;;;;;;0.00;0.00;;;;;11.68;90.61;100918.94;4996608;28;45393;-57
2023/12/21 08:10:32;;;;;;;;;0.00;0.00;;;;;11.66;91.28;100910.25;4999006;28;45871;-57
2023/12/21 08:12:58;;;;;;;;;0.00;0.00;;;;;11.66;91.08;100916.41;4998401;28;47398;-56
2023/12/21 08:15:26;;;;;;;;;0.00;0.00;;;;;11.67;91.16;100909.25;4998468;28;45369;-56
2023/12/21 08:17:55;;;;;;;;;1.00;0.00;;;;;11.70;90.97;100892.97;4998508;28;45373;-56
2023/12/21 08:20:21;;;;;;;;;0.00;0.00;;;;;11.71;90.50;100889.31;4998593;28;45441;-57
2023/12/21 08:22:46;;;;;;;;;0.00;0.00;;;;;11.76;90.67;100894.22;4998191;28;46317;-57
2023/12/21 08:25:12;;;;;;;;;0.00;0.00;;;;;11.78;91.02;100911.72;4998497;28;45335;-58
2023/12/21 08:27:37;;;;;;;;;0.00;0.00;;;;;11.79;90.42;100897.38;4998511;28;45273;-57
2023/12/21 08:30:03;;;;;;;;;0.00;0.00;;;;;11.82;90.15;100896.25;4998567;28;45519;-56
2023/12/21 08:32:29;;;;;;;;;0.67;0.00;;;;;11.72;90.55;100880.34;4996831;28;45366;-56
2023/12/21 08:34:54;;;;;;;;;0.00;0.00;;;;;11.87;90.56;100905.50;4998282;28;45378;-56
2023/12/21 08:37:19;;;;;;;;;0.67;0.00;;;;;11.91;90.10;100892.72;4998683;28;45232;-57
2023/12/21 08:39:45;;;;;;;;;0.00;0.00;;;;;11.96;90.12;100899.25;4998820;28;45531;-56
2023/12/21 08:42:10;;;;;;;;;0.00;0.00;;;;;11.96;89.75;100867.25;4998328;28;46253;-55
2023/12/21 08:44:37;;;;;;;;;0.00;0.00;;;;;11.94;89.68;100869.25;4998297;28;45514;-57
2023/12/21 08:47:04;;;;;;;;;0.33;0.00;;;;;11.97;89.76;100897.44;4998389;28;45280;-57
2023/12/21 08:49:29;;;;;;;;;0.00;0.00;;;;;12.02;89.88;100900.50;4998501;28;45476;-56
2023/12/21 08:51:55;;;;;;;;;2.00;0.00;;;;;11.98;89.95;100894.63;4998256;28;45521;-56
2023/12/21 08:54:20;;;;;;;;;0.00;0.00;;;;;12.02;89.75;100903.16;4998278;28;45417;-57
2023/12/21 08:56:45;;;;;;;;;0.00;0.00;;;;;12.02;89.51;100908.50;4998166;28;45340;-56
2023/12/21 08:59:11;;;;;;;;;0.00;0.00;;;;;11.95;89.75;100891.41;4998347;28;45496;-57
2023/12/21 09:01:37;;;;;;;;;0.00;0.00;;;;;11.99;90.35;100903.47;4997862;28;45884;-56
2023/12/21 09:04:04;;;;;;;;;1.67;0.00;;;;;12.03;89.94;100920.81;4997997;28;45417;-55
2023/12/21 09:06:31;;;;;;;;;0.00;0.00;;;;;12.04;89.82;100906.50;4998127;28;45316;-57
2023/12/21 09:08:56;;;;;;;;;0.00;0.00;;;;;12.11;90.56;100923.56;4997874;28;45438;-55
2023/12/21 09:11:22;;;;;;;;;0.00;0.00;;;;;12.12;90.06;100924.41;4997890;28;47589;-57
2023/12/21 09:13:47;;;;;;;;;0.00;0.00;;;;;12.12;90.28;100925.25;4998028;28;45403;-57
2023/12/21 09:16:14;;;;;;;;;3.00;0.00;;;;;12.13;90.56;100908.25;4996587;28;45346;-56
2023/12/21 09:18:42;;;;;;;;;0.00;0.00;;;;;12.15;90.70;100927.63;4998037;28;45436;-57
2023/12/21 09:21:08;;;;;;;;;0.00;0.00;;;;;12.14;89.82;100920.63;4997642;28;46311;-56
2023/12/21 09:23:33;;;;;;;;;0.00;0.00;;;;;12.15;90.19;100906.28;4997812;28;45355;-57
2023/12/21 09:25:59;;;;;;;;;0.00;0.00;;;;;12.14;90.69;100917.94;4997984;28;45383;-55
2023/12/21 09:28:24;;;;;;;;;0.00;0.00;;;;;12.16;90.63;100889.28;4997958;28;45372;-57
2023/12/21 09:30:49;;;;;;;;;0.00;0.00;;;;;12.16;90.10;100905.28;4997514;28;51832;-56
2023/12/21 09:33:15;;;;;;;;;0.00;0.00;;;;;12.20;90.94;100903.97;4997738;28;45758;-56
2023/12/21 09:35:40;;;;;;;;;0.00;0.00;;;;;12.25;90.32;100892.84;4997520;28;45289;-56
2023/12/21 09:38:05;;;;;;;;;0.67;0.00;;;;;12.24;90.34;100892.03;4997826;28;45228;-57
2023/12/21 09:40:32;;;;;;;;;0.00;0.00;;;;;12.26;90.54;100893.69;4997508;28;45402;-55
2023/12/21 09:43:02;;;;;;;;;0.00;0.00;;;;;12.17;91.04;100888.28;4997460;28;45247;-56
2023/12/21 09:45:29;;;;;;;;;0.00;0.00;;;;;12.27;90.44;100893.56;4997419;28;45420;-57
2023/12/21 09:47:54;;;;;;;;;0.00;0.00;;;;;12.30;90.81;100879.06;4997645;28;45338;-55
2023/12/21 09:50:20;;;;;;;;;1.00;0.00;;;;;12.32;91.25;100887.75;4997126;28;47204;-55
2023/12/21 09:52:47;;;;;;;;;0.33;0.00;;;;;12.33;91.31;100876.91;4997315;28;45257;-56
2023/12/21 09:55:15;;;;;;;;;1.00;1.00;;;;;12.32;91.36;100877.91;4997361;28;45379;-55
2023/12/21 09:57:41;;;;;;;;;0.00;0.00;;;;;12.33;91.36;100878.75;4996239;28;45415;-55
2023/12/21 10:00:07;;;;;;;;;1.00;0.00;;;;;12.32;91.71;100867.25;4997051;28;47690;-57
2023/12/21 10:02:33;;;;;;;;;0.00;0.00;;;;;12.30;91.53;100869.22;4996886;28;45377;-55
2023/12/21 10:04:58;;;;;;;;;0.00;0.00;;;;;12.30;91.16;100889.72;4997222;28;45738;-54
2023/12/21 10:07:25;;;;;;;;;1.67;0.00;;;;;12.28;91.97;100895.22;4997398;28;45401;-55
2023/12/21 10:09:51;;;;;;;;;0.00;0.00;;;;;12.19;92.06;100878.31;4997034;28;47253;-54
2023/12/21 10:12:16;;;;;;;;;0.00;0.00;;;;;12.23;92.02;100870.84;4996985;28;45377;-57
2023/12/21 10:14:43;;;;;;;;;0.00;0.00;;;;;12.26;91.97;100865.19;4997143;28;45417;-55
2023/12/21 10:17:10;;;;;;;;;0.00;0.00;;;;;12.24;92.03;100870.69;4997444;28;45525;-55
2023/12/21 10:19:44;;;;;;;;;0.00;0.00;;;;;12.25;92.62;100879.50;4995916;28;45365;-56
2023/12/21 10:22:09;;;;;;;;;0.00;0.00;;;;;12.25;92.16;100868.84;4997001;28;45516;-56
2023/12/21 10:24:36;;;;;;;;;0.33;0.00;;;;;12.18;92.04;100873.97;4996711;28;45358;-57
2023/12/21 10:27:03;;;;;;;;;0.00;0.00;;;;;12.20;92.44;100874.66;4996783;28;45215;-56
2023/12/21 10:29:29;;;;;;;;;0.00;0.00;;;;;12.21;92.31;100862.16;4996386;28;47381;-57
2023/12/21 10:31:56;;;;;;;;;1.00;0.00;;;;;12.21;92.43;100862.97;4996495;28;45403;-56
2023/12/21 10:34:22;;;;;;;;;0.00;0.00;;;;;12.21;93.12;100865.66;4996525;28;45417;-56
2023/12/21 10:36:48;;;;;;;;;0.00;0.00;;;;;12.21;93.50;100852.31;4996838;28;45374;-56
2023/12/21 10:39:14;;;;;;;;;0.33;0.33;;;;;12.20;93.13;100842.66;4996456;28;46140;-56
2023/12/21 10:41:44;;;;;;;;;0.00;0.00;;;;;12.19;93.14;100851.66;4996657;28;45382;-57
2023/12/21 10:44:15;;;;;;;;;0.67;0.67;;;;;12.24;93.94;100873.34;4996804;28;45388;-57
2023/12/21 10:46:41;;;;;;;;;1.00;1.00;;;;;12.25;93.41;100863.50;4996743;28;45489;-56
2023/12/21 10:49:10;;;;;;;;;1.00;0.67;;;;;12.22;93.97;100872.69;4996183;28;46458;-57
2023/12/21 10:51:37;;;;;;;;;1.00;0.00;;;;;12.26;93.81;100875.00;4996470;28;45646;-55
2023/12/21 10:54:06;;;;;;;;;2.67;0.00;;;;;12.25;93.66;100887.53;4996488;28;45301;-56
2023/12/21 10:56:33;;;;;;;;;0.00;0.00;;;;;12.12;93.86;100850.56;4996566;28;45564;-57
2023/12/21 10:59:02;;;;;;;;;0.00;0.00;;;;;12.22;94.19;100875.34;4996103;28;46348;-56
2023/12/21 11:01:29;;;;;;;;;2.33;1.00;;;;;12.23;94.34;100858.34;4996305;28;45345;-56
2023/12/21 11:04:01;;;;;;;;;0.00;0.00;;;;;12.22;95.21;100861.19;4996519;28;45531;-56
2023/12/21 11:06:27;;;;;;;;;2.00;0.67;;;;;12.22;94.16;100854.00;4996640;28;45362;-56
2023/12/21 11:08:57;;;;;;;;;0.67;0.33;;;;;12.17;94.58;100837.59;4996262;28;45430;-56
2023/12/21 11:11:24;;;;;;;;;2.00;1.00;;;;;12.22;94.52;100851.34;4996347;28;45503;-57
2023/12/21 11:13:55;;;;;;;;;2.00;1.00;;;;;12.22;94.26;100837.19;4996445;28;45370;-56
2023/12/21 11:16:25;;;;;;;;;2.00;0.33;;;;;12.23;94.13;100842.34;4996457;28;45358;-57